createdAt,value
2018-05-09T00:02:11.650Z,9.00
2018-05-09T00:04:40.157Z,8.40
2018-05-09T00:07:08.655Z,8.40
2018-05-09T00:09:37.122Z,8.40
2018-05-09T00:12:05.715Z,8.70
2018-05-09T00:14:34.145Z,11.13
2018-05-09T00:17:02.658Z,9.53
2018-05-09T00:19:31.152Z,9.00
2018-05-09T00:21:59.642Z,9.10
2018-05-09T00:24:28.120Z,10.03
2018-05-09T00:26:56.616Z,9.37
2018-05-09T00:29:25.085Z,9.27
2018-05-09T00:31:53.588Z,9.33
2018-05-09T00:34:22.080Z,11.17
2018-05-09T00:36:50.600Z,13.83
2018-05-09T00:39:19.060Z,13.53
2018-05-09T00:41:47.580Z,15.30
2018-05-09T00:44:16.087Z,16.37
2018-05-09T00:46:44.561Z,13.53
2018-05-09T00:49:13.094Z,14.93
2018-05-09T00:51:41.577Z,14.47
2018-05-09T00:54:21.759Z,14.33
2018-05-09T00:56:50.211Z,13.97
2018-05-09T00:59:18.710Z,14.13
2018-05-09T01:01:47.225Z,13.83
2018-05-09T01:04:15.779Z,12.77
2018-05-09T01:06:44.256Z,13.17
2018-05-09T01:09:12.760Z,13.70
2018-05-09T01:11:41.336Z,13.97
2018-05-09T01:14:09.826Z,12.20
2018-05-09T01:16:38.361Z,15.70
2018-05-09T01:19:06.864Z,12.97
2018-05-09T01:21:35.400Z,12.60
2018-05-09T01:24:03.921Z,13.90
2018-05-09T01:26:32.506Z,12.80
2018-05-09T01:29:01.001Z,12.20
2018-05-09T01:31:29.472Z,11.77
2018-05-09T01:33:57.984Z,13.47
2018-05-09T01:36:26.452Z,13.60
2018-05-09T01:38:54.941Z,11.73
2018-05-09T01:41:23.480Z,11.77
2018-05-09T01:43:51.949Z,11.63
2018-05-09T01:46:20.464Z,11.00
2018-05-09T01:48:48.924Z,10.87
2018-05-09T01:51:17.434Z,11.13
2018-05-09T01:53:45.904Z,12.07
2018-05-09T01:56:14.416Z,11.23
2018-05-09T01:58:42.892Z,11.67
2018-05-09T02:01:11.408Z,12.20
2018-05-09T02:03:39.907Z,12.20
2018-05-09T02:06:08.378Z,12.27
2018-05-09T02:08:36.908Z,13.47
2018-05-09T02:11:05.374Z,15.17
2018-05-09T02:13:33.916Z,13.57
2018-05-09T02:16:02.421Z,14.27
2018-05-09T02:18:30.916Z,14.87
2018-05-09T02:20:59.416Z,15.87
2018-05-09T02:23:27.888Z,12.17
2018-05-09T02:25:56.447Z,12.70
2018-05-09T02:28:24.918Z,12.43
2018-05-09T02:30:53.448Z,13.07
2018-05-09T02:33:21.928Z,13.00
2018-05-09T02:35:50.449Z,12.67
2018-05-09T02:38:18.984Z,12.50
2018-05-09T02:40:47.505Z,13.67
2018-05-09T02:43:15.961Z,13.93
2018-05-09T02:45:44.565Z,13.50
2018-05-09T02:48:13.052Z,14.37
2018-05-09T02:50:41.523Z,13.50
2018-05-09T02:53:10.025Z,19.17
2018-05-09T02:55:38.528Z,14.33
2018-05-09T02:58:07.016Z,14.23
2018-05-09T03:00:35.481Z,14.07
2018-05-09T03:03:03.976Z,34.03
2018-05-09T03:05:32.496Z,22.90
2018-05-09T03:08:00.997Z,30.17
2018-05-09T03:10:29.473Z,22.47
2018-05-09T03:12:57.983Z,24.03
2018-05-09T03:15:26.473Z,27.30
2018-05-09T03:17:54.942Z,21.60
2018-05-09T03:20:23.467Z,20.87
2018-05-09T03:22:51.989Z,15.50
2018-05-09T03:25:20.524Z,14.70
2018-05-09T03:27:49.052Z,18.03
2018-05-09T03:30:17.569Z,14.37
2018-05-09T03:32:46.036Z,17.30
2018-05-09T03:35:14.532Z,15.43
2018-05-09T03:37:43.028Z,14.93
2018-05-09T03:40:11.512Z,20.33
2018-05-09T03:42:40.037Z,17.47
2018-05-09T03:45:08.516Z,19.57
2018-05-09T03:47:37.928Z,24.67
2018-05-09T03:50:06.389Z,18.50
2018-05-09T03:52:34.878Z,37.63
2018-05-09T03:55:03.377Z,20.87
2018-05-09T03:57:31.899Z,27.53
2018-05-09T04:00:00.378Z,25.47
2018-05-09T04:02:44.369Z,28.63
2018-05-09T04:05:24.436Z,20.63
2018-05-09T04:08:04.525Z,20.23
2018-05-09T04:10:33.024Z,23.73
2018-05-09T04:13:01.534Z,16.47
2018-05-09T04:15:30.028Z,20.50
2018-05-09T04:17:58.540Z,17.53
2018-05-09T04:20:27.048Z,21.07
2018-05-09T04:22:55.529Z,16.27
2018-05-09T04:25:24.062Z,20.60
2018-05-09T04:27:52.543Z,16.63
2018-05-09T04:30:21.068Z,15.13
2018-05-09T04:32:49.533Z,16.00
2018-05-09T04:35:18.024Z,18.23
2018-05-09T04:37:46.516Z,11.87
2018-05-09T04:40:15.008Z,15.97
2018-05-09T04:42:43.485Z,15.10
2018-05-09T04:45:11.984Z,13.07
2018-05-09T04:47:40.457Z,21.73
2018-05-09T04:50:08.952Z,21.73
2018-05-09T04:52:37.420Z,18.43
2018-05-09T04:55:05.945Z,15.20
2018-05-09T04:57:34.421Z,19.53
2018-05-09T05:00:02.908Z,19.33
2018-05-09T05:02:31.428Z,25.53
2018-05-09T05:04:59.936Z,21.10
2018-05-09T05:07:28.467Z,22.57
2018-05-09T05:09:56.928Z,16.03
2018-05-09T05:12:25.447Z,19.40
2018-05-09T05:14:53.924Z,12.87
2018-05-09T05:17:22.450Z,18.87
2018-05-09T05:19:50.932Z,15.60
2018-05-09T05:22:19.432Z,14.80
2018-05-09T05:24:47.910Z,11.17
2018-05-09T05:27:16.429Z,12.80
2018-05-09T05:29:44.925Z,10.97
2018-05-09T05:32:13.429Z,15.07
2018-05-09T05:34:41.894Z,13.77
2018-05-09T05:37:10.348Z,13.27
2018-05-09T05:39:38.854Z,12.57
2018-05-09T05:42:07.339Z,11.60
2018-05-09T05:44:35.873Z,17.23
2018-05-09T05:47:04.344Z,9.73
2018-05-09T05:49:32.844Z,8.87
2018-05-09T05:52:01.329Z,9.50
2018-05-09T05:54:29.804Z,13.30
2018-05-09T05:56:58.340Z,12.13
2018-05-09T05:59:26.822Z,21.20
2018-05-09T06:01:55.324Z,15.93
2018-05-09T06:04:23.788Z,13.90
2018-05-09T06:06:52.296Z,22.20
2018-05-09T06:09:20.897Z,8.83
2018-05-09T06:11:49.353Z,8.37
2018-05-09T06:14:17.911Z,10.90
2018-05-09T06:16:46.379Z,8.53
2018-05-09T06:19:14.928Z,13.23
2018-05-09T06:21:43.382Z,17.40
2018-05-09T06:24:11.984Z,7.00
2018-05-09T06:26:40.388Z,19.77
2018-05-09T06:29:08.858Z,8.50
2018-05-09T06:31:37.402Z,9.17
2018-05-09T06:34:05.910Z,7.67
2018-05-09T06:36:34.439Z,8.47
2018-05-09T06:39:02.957Z,10.03
2018-05-09T06:41:31.466Z,10.43
2018-05-09T06:43:59.972Z,7.83
2018-05-09T06:46:28.473Z,10.80
2018-05-09T06:48:56.925Z,12.10
2018-05-09T06:51:25.439Z,13.77
2018-05-09T06:53:53.912Z,22.30
2018-05-09T06:56:22.430Z,7.30
2018-05-09T06:58:50.875Z,6.90
2018-05-09T07:01:19.503Z,5.30
2018-05-09T07:03:48.104Z,7.07
2018-05-09T07:06:16.843Z,5.40
2018-05-09T07:08:45.720Z,13.43
2018-05-09T07:11:14.267Z,15.40
2018-05-09T07:13:42.838Z,9.13
2018-05-09T07:16:11.561Z,13.50
2018-05-09T07:18:40.097Z,8.67
2018-05-09T07:21:08.541Z,8.23
2018-05-09T07:23:37.088Z,6.37
2018-05-09T07:26:05.771Z,5.00
2018-05-09T07:28:34.301Z,5.43
2018-05-09T07:31:02.827Z,9.13
2018-05-09T07:33:31.568Z,6.50
2018-05-09T07:36:00.617Z,21.13
2018-05-09T07:38:29.079Z,7.73
2018-05-09T07:40:57.619Z,10.90
2018-05-09T07:43:26.137Z,10.17
2018-05-09T07:45:54.612Z,32.37
2018-05-09T07:48:23.113Z,23.40
2018-05-09T07:50:51.563Z,5.67
2018-05-09T07:53:20.088Z,10.83
2018-05-09T07:55:48.552Z,10.00
2018-05-09T07:58:17.028Z,19.50
2018-05-09T08:00:45.520Z,10.40
2018-05-09T08:03:13.976Z,8.27
2018-05-09T08:05:42.469Z,22.60
2018-05-09T08:08:10.929Z,9.90
2018-05-09T08:10:39.445Z,11.77
2018-05-09T08:13:07.986Z,8.33
2018-05-09T08:15:36.506Z,11.00
2018-05-09T08:18:05.005Z,4.77
2018-05-09T08:20:33.515Z,6.57
2018-05-09T08:23:01.980Z,10.40
2018-05-09T08:25:30.472Z,5.90
2018-05-09T08:27:59.012Z,4.00
2018-05-09T08:30:27.503Z,7.00
2018-05-09T08:32:56.016Z,8.53
2018-05-09T08:35:24.500Z,12.43
2018-05-09T08:37:52.974Z,8.60
2018-05-09T08:40:21.471Z,12.50
2018-05-09T08:42:49.990Z,10.10
2018-05-09T08:45:18.456Z,8.93
2018-05-09T08:47:46.936Z,6.67
2018-05-09T08:50:15.425Z,10.70
2018-05-09T08:52:43.905Z,9.27
2018-05-09T08:55:12.495Z,4.33
2018-05-09T08:57:41.024Z,6.87
2018-05-09T09:00:09.501Z,6.13
2018-05-09T09:02:37.992Z,4.60
2018-05-09T09:05:06.497Z,8.50
2018-05-09T09:07:34.988Z,9.73
2018-05-09T09:10:03.510Z,10.93
2018-05-09T09:12:32.066Z,6.17
2018-05-09T09:15:00.554Z,5.53
2018-05-09T09:17:29.116Z,7.40
2018-05-09T09:19:57.598Z,3.70
2018-05-09T09:22:26.100Z,5.23
2018-05-09T09:24:54.589Z,4.17
2018-05-09T09:27:23.053Z,7.00
2018-05-09T09:29:51.560Z,5.57
2018-05-09T09:32:20.048Z,5.53
2018-05-09T09:34:48.562Z,6.50
2018-05-09T09:37:17.072Z,6.30
2018-05-09T09:39:45.560Z,6.47
2018-05-09T09:42:14.084Z,6.70
2018-05-09T09:44:42.569Z,8.13
2018-05-09T09:47:11.078Z,6.10
2018-05-09T09:49:39.529Z,4.13
2018-05-09T09:52:08.103Z,4.93
2018-05-09T09:54:36.624Z,11.67
2018-05-09T09:57:05.091Z,3.37
2018-05-09T09:59:33.621Z,4.97
2018-05-09T10:02:02.072Z,3.20
2018-05-09T10:04:30.725Z,4.63
2018-05-09T10:06:59.251Z,13.93
2018-05-09T10:09:27.765Z,4.47
2018-05-09T10:11:56.221Z,9.10
2018-05-09T10:14:24.817Z,4.17
2018-05-09T10:16:53.309Z,7.47
2018-05-09T10:19:21.844Z,4.30
2018-05-09T10:21:50.319Z,3.27
2018-05-09T10:24:18.832Z,4.30
2018-05-09T10:26:47.352Z,3.30
2018-05-09T10:29:15.852Z,5.70
2018-05-09T10:31:44.340Z,3.20
2018-05-09T10:34:12.865Z,3.37
2018-05-09T10:36:41.342Z,3.93
2018-05-09T10:39:09.859Z,8.90
2018-05-09T10:41:38.359Z,5.23
2018-05-09T10:44:06.820Z,7.67
2018-05-09T10:46:35.300Z,4.77
2018-05-09T10:49:03.764Z,4.67
2018-05-09T10:51:32.268Z,6.27
2018-05-09T10:54:00.725Z,4.10
2018-05-09T10:56:29.254Z,9.93
2018-05-09T10:58:57.708Z,7.03
2018-05-09T11:01:26.209Z,5.20
2018-05-09T11:03:54.676Z,4.77
2018-05-09T11:06:23.169Z,5.60
2018-05-09T11:08:51.749Z,7.23
2018-05-09T11:11:20.248Z,3.93
2018-05-09T11:13:48.726Z,6.40
2018-05-09T11:16:17.257Z,3.50
2018-05-09T11:18:45.741Z,8.33
2018-05-09T11:21:14.221Z,5.30
2018-05-09T11:23:42.682Z,5.70
2018-05-09T11:26:11.147Z,5.00
2018-05-09T11:28:39.613Z,5.90
2018-05-09T11:31:08.237Z,6.83
2018-05-09T11:33:36.755Z,3.97
2018-05-09T11:36:05.309Z,5.60
2018-05-09T11:38:33.811Z,6.20
2018-05-09T11:41:02.321Z,4.53
2018-05-09T11:43:30.849Z,5.63
2018-05-09T11:45:59.341Z,8.00
2018-05-09T11:48:27.833Z,3.90
2018-05-09T11:50:56.296Z,8.57
2018-05-09T11:53:24.785Z,7.63
2018-05-09T11:55:53.280Z,6.53
2018-05-09T11:58:21.795Z,7.67
2018-05-09T12:00:50.272Z,5.10
2018-05-09T12:03:18.740Z,4.70
2018-05-09T12:05:47.252Z,5.10
2018-05-09T12:08:15.698Z,4.63
2018-05-09T12:10:44.327Z,5.57
2018-05-09T12:13:12.681Z,3.73
2018-05-09T12:15:41.197Z,3.40
2018-05-09T12:18:09.693Z,4.60
2018-05-09T12:20:38.161Z,4.30
2018-05-09T12:23:06.644Z,3.40
2018-05-09T12:25:35.121Z,9.17
2018-05-09T12:28:03.632Z,4.87
2018-05-09T12:30:32.089Z,6.20
2018-05-09T12:33:00.610Z,4.83
2018-05-09T12:35:29.086Z,6.03
2018-05-09T12:37:57.550Z,4.03
2018-05-09T12:40:26.044Z,6.57
2018-05-09T12:42:54.537Z,7.03
2018-05-09T12:45:22.996Z,6.07
2018-05-09T12:47:51.461Z,5.60
2018-05-09T12:50:19.953Z,5.30
2018-05-09T12:52:48.462Z,3.37
2018-05-09T12:55:16.948Z,4.17
2018-05-09T12:57:45.486Z,3.47
2018-05-09T13:00:13.990Z,4.80
2018-05-09T13:02:42.477Z,4.13
2018-05-09T13:05:10.941Z,6.57
2018-05-09T13:07:39.452Z,5.57
2018-05-09T13:10:07.918Z,4.57
2018-05-09T13:12:36.421Z,4.27
2018-05-09T13:15:04.969Z,3.70
2018-05-09T13:17:33.434Z,5.70
2018-05-09T13:20:01.948Z,7.07
2018-05-09T13:22:30.434Z,3.83
2018-05-09T13:24:59.013Z,6.77
2018-05-09T13:27:27.469Z,3.83
2018-05-09T13:29:55.981Z,3.83
2018-05-09T13:32:24.428Z,6.47
2018-05-09T13:34:52.933Z,6.57
2018-05-09T13:37:21.449Z,4.73
2018-05-09T13:39:49.984Z,3.97
2018-05-09T13:42:18.453Z,6.37
2018-05-09T13:44:46.958Z,6.90
2018-05-09T13:47:15.453Z,5.03
2018-05-09T13:49:43.905Z,5.13
2018-05-09T13:52:12.398Z,9.77
2018-05-09T13:54:40.897Z,6.17
2018-05-09T13:57:09.361Z,3.80
2018-05-09T13:59:37.875Z,6.33
2018-05-09T14:02:06.401Z,8.67
2018-05-09T14:04:34.923Z,4.70
2018-05-09T14:07:03.432Z,4.70
2018-05-09T14:09:31.912Z,7.33
2018-05-09T14:12:00.426Z,7.67
2018-05-09T14:14:28.874Z,5.93
2018-05-09T14:16:57.362Z,5.93
2018-05-09T14:19:25.813Z,6.03
2018-05-09T14:21:54.277Z,5.93
2018-05-09T14:24:22.772Z,7.40
2018-05-09T14:26:51.241Z,4.43
2018-05-09T14:29:19.762Z,6.17
2018-05-09T14:31:48.220Z,6.63
2018-05-09T14:34:16.710Z,7.20
2018-05-09T14:36:45.173Z,6.67
2018-05-09T14:39:13.701Z,5.10
2018-05-09T14:41:42.180Z,4.70
2018-05-09T14:44:10.645Z,4.37
2018-05-09T14:46:39.167Z,5.97
2018-05-09T14:49:07.661Z,6.40
2018-05-09T14:51:36.183Z,7.70
2018-05-09T14:54:04.648Z,4.10
2018-05-09T14:56:33.144Z,7.67
2018-05-09T14:59:01.688Z,3.83
2018-05-09T15:01:30.189Z,7.73
2018-05-09T15:03:58.720Z,15.33
2018-05-09T15:06:27.233Z,4.63
2018-05-09T15:08:55.833Z,5.90
2018-05-09T15:11:24.324Z,9.53
2018-05-09T15:13:52.787Z,3.93
2018-05-09T15:16:21.300Z,3.97
2018-05-09T15:18:49.805Z,5.90
2018-05-09T15:21:18.296Z,7.40
2018-05-09T15:23:46.730Z,10.60
2018-05-09T15:26:15.234Z,7.80
2018-05-09T15:28:43.688Z,5.47
2018-05-09T15:31:12.220Z,9.50
2018-05-09T15:33:40.733Z,5.50
2018-05-09T15:36:09.229Z,7.27
2018-05-09T15:38:37.697Z,4.27
2018-05-09T15:41:06.180Z,4.87
2018-05-09T15:43:34.680Z,6.70
2018-05-09T15:46:03.184Z,4.60
2018-05-09T15:48:31.652Z,6.57
2018-05-09T15:51:00.121Z,4.53
2018-05-09T15:53:28.648Z,5.27
2018-05-09T15:55:57.128Z,5.83
2018-05-09T15:58:25.626Z,8.03
2018-05-09T16:00:54.169Z,4.93
2018-05-09T16:03:22.632Z,8.10
2018-05-09T16:05:51.185Z,4.87
2018-05-09T16:08:19.619Z,7.93
2018-05-09T16:10:48.148Z,4.23
2018-05-09T16:13:16.609Z,4.43
2018-05-09T16:15:45.094Z,5.13
2018-05-09T16:18:13.580Z,5.97
2018-05-09T16:20:42.077Z,4.17
2018-05-09T16:23:10.597Z,4.50
2018-05-09T16:25:39.070Z,3.90
2018-05-09T16:28:07.540Z,4.27
2018-05-09T16:30:36.036Z,5.97
2018-05-09T16:33:04.566Z,4.70
2018-05-09T16:35:33.073Z,4.60
2018-05-09T16:38:01.549Z,5.80
2018-05-09T16:40:30.134Z,4.23
2018-05-09T16:42:58.617Z,4.67
2018-05-09T16:45:27.175Z,9.17
2018-05-09T16:47:55.655Z,4.90
2018-05-09T16:50:24.147Z,6.63
2018-05-09T16:52:52.659Z,8.73
2018-05-09T16:55:21.124Z,6.63
2018-05-09T16:57:49.611Z,5.23
2018-05-09T17:00:18.164Z,6.77
2018-05-09T17:02:46.718Z,6.63
2018-05-09T17:05:15.153Z,5.83
2018-05-09T17:07:43.629Z,6.23
2018-05-09T17:10:12.136Z,7.10
2018-05-09T17:12:40.684Z,6.37
2018-05-09T17:15:09.128Z,5.43
2018-05-09T17:17:37.653Z,6.53
2018-05-09T17:20:06.134Z,7.23
2018-05-09T17:22:34.664Z,8.63
2018-05-09T17:25:03.127Z,6.20
2018-05-09T17:27:31.668Z,20.13
2018-05-09T17:30:00.117Z,10.40
2018-05-09T17:32:28.636Z,8.50
2018-05-09T17:34:57.096Z,9.83
2018-05-09T17:37:25.593Z,9.93
2018-05-09T17:39:54.097Z,11.07
2018-05-09T17:42:22.596Z,6.93
2018-05-09T17:44:51.048Z,10.50
2018-05-09T17:47:19.554Z,7.53
2018-05-09T17:49:48.057Z,11.13
2018-05-09T17:52:16.611Z,8.00
2018-05-09T17:54:45.056Z,9.70
2018-05-09T17:57:13.557Z,7.40
2018-05-09T17:59:42.111Z,8.47
2018-05-09T18:02:10.600Z,8.70
2018-05-09T18:04:39.075Z,8.77
2018-05-09T18:07:07.532Z,7.10
2018-05-09T18:09:36.031Z,6.50
2018-05-09T18:12:04.511Z,9.80
2018-05-09T18:14:32.993Z,9.33
2018-05-09T18:17:01.532Z,6.47
2018-05-09T18:19:29.996Z,13.57
2018-05-09T18:21:58.448Z,10.67
2018-05-09T18:24:26.975Z,8.93
2018-05-09T18:26:55.492Z,6.87
2018-05-09T18:29:23.961Z,6.60
2018-05-09T18:31:52.424Z,10.30
2018-05-09T18:34:20.909Z,7.93
2018-05-09T18:36:49.397Z,9.80
2018-05-09T18:39:17.903Z,9.00
2018-05-09T18:41:46.357Z,7.73
2018-05-09T18:44:14.853Z,7.50
2018-05-09T18:46:43.370Z,8.23
2018-05-09T18:49:11.825Z,12.13
2018-05-09T18:51:40.336Z,8.60
2018-05-09T18:54:08.899Z,8.47
2018-05-09T18:56:37.403Z,8.03
2018-05-09T18:59:05.845Z,7.80
2018-05-09T19:01:34.326Z,7.60
2018-05-09T19:04:02.798Z,7.90
2018-05-09T19:06:31.325Z,7.83
2018-05-09T19:08:59.775Z,7.80
2018-05-09T19:11:28.254Z,8.73
2018-05-09T19:13:56.772Z,6.70
2018-05-09T19:16:25.302Z,7.20
2018-05-09T19:18:53.771Z,7.60
2018-05-09T19:21:22.289Z,8.27
2018-05-09T19:23:50.749Z,7.67
2018-05-09T19:26:19.221Z,7.67
2018-05-09T19:28:47.700Z,7.63
2018-05-09T19:31:16.140Z,10.00
2018-05-09T19:33:44.652Z,6.93
2018-05-09T19:36:13.116Z,9.23
2018-05-09T19:38:41.744Z,8.60
2018-05-09T19:41:10.140Z,9.27
2018-05-09T19:43:38.592Z,7.90
2018-05-09T19:46:07.103Z,8.53
2018-05-09T19:48:35.568Z,7.53
2018-05-09T19:51:04.133Z,7.37
2018-05-09T19:53:32.572Z,8.93
2018-05-09T19:56:01.049Z,9.27
2018-05-09T19:58:29.500Z,11.43
2018-05-09T20:00:57.987Z,8.30
2018-05-09T20:03:26.436Z,7.60
2018-05-09T20:05:54.929Z,12.77
2018-05-09T20:08:23.412Z,11.03
2018-05-09T20:10:51.892Z,9.87
2018-05-09T20:13:20.421Z,7.63
2018-05-09T20:15:48.904Z,11.17
2018-05-09T20:18:17.344Z,8.47
2018-05-09T20:20:45.844Z,13.07
2018-05-09T20:23:14.364Z,12.60
2018-05-09T20:25:42.861Z,11.07
2018-05-09T20:28:11.344Z,9.70
2018-05-09T20:30:45.420Z,9.80
2018-05-09T20:33:13.884Z,10.47
2018-05-09T20:35:42.373Z,9.83
2018-05-09T20:38:10.864Z,9.43
2018-05-09T20:40:39.322Z,10.67
2018-05-09T20:43:07.800Z,13.33
2018-05-09T20:45:36.405Z,8.83
2018-05-09T20:48:04.857Z,12.50
2018-05-09T20:50:33.345Z,9.90
2018-05-09T20:53:01.788Z,15.40
2018-05-09T20:55:30.307Z,13.77
2018-05-09T20:57:58.861Z,10.90
2018-05-09T21:00:27.424Z,10.93
2018-05-09T21:02:55.873Z,11.80
2018-05-09T21:05:24.406Z,11.73
2018-05-09T21:07:56.807Z,13.10
2018-05-09T21:10:25.287Z,12.27
2018-05-09T21:12:53.728Z,11.33
2018-05-09T21:15:22.260Z,10.40
2018-05-09T21:17:50.723Z,12.70
2018-05-09T21:20:19.182Z,10.77
2018-05-09T21:22:47.665Z,15.50
2018-05-09T21:25:16.155Z,11.83
2018-05-09T21:27:44.708Z,10.80
2018-05-09T21:30:13.250Z,11.53
2018-05-09T21:32:41.705Z,13.00
2018-05-09T21:35:10.149Z,18.47
2018-05-09T21:37:38.644Z,17.60
2018-05-09T21:40:07.099Z,15.67
2018-05-09T21:42:35.589Z,16.07
2018-05-09T21:45:04.065Z,12.83
2018-05-09T21:47:32.545Z,14.50
2018-05-09T21:50:01.068Z,14.37
2018-05-09T21:52:29.553Z,18.20
2018-05-09T21:54:58.037Z,12.83
2018-05-09T21:57:26.470Z,14.47
2018-05-09T21:59:54.957Z,13.80
2018-05-09T22:02:23.404Z,14.57
2018-05-09T22:04:51.893Z,12.77
2018-05-09T22:07:20.353Z,10.47
2018-05-09T22:09:48.868Z,12.07
2018-05-09T22:12:17.349Z,10.87
2018-05-09T22:14:45.843Z,11.83
2018-05-09T22:17:14.356Z,11.50
2018-05-09T22:19:42.800Z,17.47
2018-05-09T22:22:11.297Z,14.57
2018-05-09T22:24:39.747Z,13.13
2018-05-09T22:27:08.192Z,13.43
2018-05-09T22:29:36.673Z,12.60
2018-05-09T22:32:05.041Z,14.93
2018-05-09T22:34:33.486Z,12.53
2018-05-09T22:37:01.921Z,15.60
2018-05-09T22:39:30.367Z,12.03
2018-05-09T22:41:58.787Z,16.07
2018-05-09T22:44:27.219Z,12.63
2018-05-09T22:46:55.603Z,13.83
2018-05-09T22:49:23.983Z,17.50
2018-05-09T22:51:52.395Z,9.63
2018-05-09T22:54:20.768Z,13.73
2018-05-09T22:56:49.199Z,11.03
2018-05-09T22:59:17.596Z,18.83
2018-05-09T23:01:46.031Z,14.60
2018-05-09T23:04:14.415Z,13.07
2018-05-09T23:06:42.878Z,12.20
2018-05-09T23:09:11.377Z,13.43
2018-05-09T23:11:39.829Z,15.53
2018-05-09T23:14:08.340Z,12.70
2018-05-09T23:16:36.808Z,12.87
2018-05-09T23:19:05.290Z,17.53
2018-05-09T23:21:33.814Z,13.93
2018-05-09T23:24:02.290Z,19.10
2018-05-09T23:26:30.819Z,12.27
2018-05-09T23:28:59.277Z,13.17
2018-05-09T23:31:27.736Z,12.17
2018-05-09T23:33:56.254Z,10.27
2018-05-09T23:36:24.761Z,18.67
2018-05-09T23:38:53.241Z,15.27
2018-05-09T23:41:21.733Z,11.63
2018-05-09T23:43:50.228Z,11.83
2018-05-09T23:46:18.784Z,14.43
2018-05-09T23:48:47.304Z,12.13
2018-05-09T23:51:15.804Z,15.53
2018-05-09T23:53:44.296Z,12.13
2018-05-09T23:56:12.792Z,11.93
2018-05-09T23:58:41.276Z,14.33
